sensor_id;sensor_type;location;lat;lon;timestamp;P1;durP1;ratioP1;P2;durP2;ratioP2
59970;SDS011;45825;45.434;9.116;2023-04-24T00:02:01;11.55;;;9.07;;
59970;SDS011;45825;45.434;9.116;2023-04-24T00:04:26;10.93;;;8.25;;
59970;SDS011;45825;45.434;9.116;2023-04-24T00:06:52;11.55;;;8.43;;
59970;SDS011;45825;45.434;9.116;2023-04-24T00:09:21;12.73;;;8.48;;
59970;SDS011;45825;45.434;9.116;2023-04-24T00:11:47;11.52;;;8.75;;
59970;SDS011;45825;45.434;9.116;2023-04-24T00:14:12;12.52;;;8.20;;
59970;SDS011;45825;45.434;9.116;2023-04-24T00:16:37;11.23;;;8.30;;
59970;SDS011;45825;45.434;9.116;2023-04-24T00:19:03;10.50;;;8.10;;
59970;SDS011;45825;45.434;9.116;2023-04-24T00:21:28;10.95;;;7.93;;
59970;SDS011;45825;45.434;9.116;2023-04-24T00:23:53;11.13;;;7.18;;
59970;SDS011;45825;45.434;9.116;2023-04-24T00:26:19;10.15;;;6.75;;
59970;SDS011;45825;45.434;9.116;2023-04-24T00:28:44;11.90;;;7.15;;
59970;SDS011;45825;45.434;9.116;2023-04-24T00:31:09;11.73;;;7.90;;
59970;SDS011;45825;45.434;9.116;2023-04-24T00:33:35;9.60;;;7.18;;
59970;SDS011;45825;45.434;9.116;2023-04-24T00:36:00;10.60;;;7.45;;
59970;SDS011;45825;45.434;9.116;2023-04-24T00:38:26;10.25;;;7.40;;
59970;SDS011;45825;45.434;9.116;2023-04-24T00:40:51;11.07;;;8.00;;
59970;SDS011;45825;45.434;9.116;2023-04-24T00:43:17;11.68;;;7.50;;
59970;SDS011;45825;45.434;9.116;2023-04-24T00:45:43;12.43;;;7.47;;
59970;SDS011;45825;45.434;9.116;2023-04-24T00:48:09;10.07;;;7.32;;
59970;SDS011;45825;45.434;9.116;2023-04-24T00:50:36;10.70;;;7.43;;
59970;SDS011;45825;45.434;9.116;2023-04-24T00:53:01;10.15;;;6.93;;
59970;SDS011;45825;45.434;9.116;2023-04-24T00:55:27;10.57;;;7.10;;
59970;SDS011;45825;45.434;9.116;2023-04-24T00:57:53;12.70;;;7.80;;
59970;SDS011;45825;45.434;9.116;2023-04-24T01:00:18;10.68;;;7.82;;
59970;SDS011;45825;45.434;9.116;2023-04-24T01:02:44;10.80;;;7.78;;
59970;SDS011;45825;45.434;9.116;2023-04-24T01:05:13;9.70;;;7.15;;
59970;SDS011;45825;45.434;9.116;2023-04-24T01:07:43;10.07;;;8.10;;
59970;SDS011;45825;45.434;9.116;2023-04-24T01:10:11;10.67;;;7.13;;
59970;SDS011;45825;45.434;9.116;2023-04-24T01:12:37;9.52;;;7.60;;
59970;SDS011;45825;45.434;9.116;2023-04-24T01:15:03;10.43;;;7.65;;
59970;SDS011;45825;45.434;9.116;2023-04-24T01:17:29;9.90;;;7.20;;
59970;SDS011;45825;45.434;9.116;2023-04-24T01:19:54;11.23;;;7.88;;
59970;SDS011;45825;45.434;9.116;2023-04-24T01:22:21;10.57;;;7.20;;
59970;SDS011;45825;45.434;9.116;2023-04-24T01:24:47;9.65;;;6.65;;
59970;SDS011;45825;45.434;9.116;2023-04-24T01:27:12;10.15;;;6.85;;
59970;SDS011;45825;45.434;9.116;2023-04-24T01:29:38;11.52;;;7.10;;
59970;SDS011;45825;45.434;9.116;2023-04-24T01:32:04;9.90;;;7.03;;
59970;SDS011;45825;45.434;9.116;2023-04-24T01:34:30;10.73;;;7.53;;
59970;SDS011;45825;45.434;9.116;2023-04-24T01:36:56;9.77;;;7.07;;
59970;SDS011;45825;45.434;9.116;2023-04-24T01:39:22;10.30;;;7.15;;
59970;SDS011;45825;45.434;9.116;2023-04-24T01:41:50;11.82;;;6.88;;
59970;SDS011;45825;45.434;9.116;2023-04-24T01:44:15;10.50;;;7.60;;
59970;SDS011;45825;45.434;9.116;2023-04-24T01:46:41;10.57;;;7.55;;
59970;SDS011;45825;45.434;9.116;2023-04-24T01:49:06;10.73;;;8.25;;
59970;SDS011;45825;45.434;9.116;2023-04-24T01:51:32;12.02;;;7.95;;
59970;SDS011;45825;45.434;9.116;2023-04-24T01:53:57;12.75;;;8.82;;
59970;SDS011;45825;45.434;9.116;2023-04-24T01:56:22;12.48;;;8.98;;
59970;SDS011;45825;45.434;9.116;2023-04-24T01:58:49;14.57;;;9.48;;
59970;SDS011;45825;45.434;9.116;2023-04-24T02:01:19;13.82;;;9.55;;
59970;SDS011;45825;45.434;9.116;2023-04-24T02:03:45;14.63;;;10.02;;
59970;SDS011;45825;45.434;9.116;2023-04-24T02:06:10;14.13;;;10.93;;
59970;SDS011;45825;45.434;9.116;2023-04-24T02:08:35;13.45;;;10.32;;
59970;SDS011;45825;45.434;9.116;2023-04-24T02:11:01;15.43;;;11.05;;
59970;SDS011;45825;45.434;9.116;2023-04-24T02:13:27;14.32;;;10.73;;
59970;SDS011;45825;45.434;9.116;2023-04-24T02:15:52;13.30;;;10.10;;
59970;SDS011;45825;45.434;9.116;2023-04-24T02:18:18;13.18;;;10.35;;
59970;SDS011;45825;45.434;9.116;2023-04-24T02:20:43;15.50;;;10.55;;
59970;SDS011;45825;45.434;9.116;2023-04-24T02:23:08;12.50;;;10.10;;
59970;SDS011;45825;45.434;9.116;2023-04-24T02:25:34;12.90;;;10.25;;
59970;SDS011;45825;45.434;9.116;2023-04-24T02:27:59;15.32;;;10.95;;
59970;SDS011;45825;45.434;9.116;2023-04-24T02:30:25;12.95;;;9.82;;
59970;SDS011;45825;45.434;9.116;2023-04-24T02:32:50;13.65;;;10.02;;
59970;SDS011;45825;45.434;9.116;2023-04-24T02:35:16;12.60;;;9.85;;
59970;SDS011;45825;45.434;9.116;2023-04-24T02:37:41;14.07;;;10.75;;
59970;SDS011;45825;45.434;9.116;2023-04-24T02:40:07;14.25;;;10.15;;
59970;SDS011;45825;45.434;9.116;2023-04-24T02:42:33;14.63;;;10.27;;
59970;SDS011;45825;45.434;9.116;2023-04-24T02:44:58;15.18;;;9.68;;
59970;SDS011;45825;45.434;9.116;2023-04-24T02:47:24;12.93;;;9.57;;
59970;SDS011;45825;45.434;9.116;2023-04-24T02:49:49;12.63;;;8.85;;
59970;SDS011;45825;45.434;9.116;2023-04-24T02:52:15;13.05;;;8.85;;
59970;SDS011;45825;45.434;9.116;2023-04-24T02:54:40;13.60;;;9.32;;
59970;SDS011;45825;45.434;9.116;2023-04-24T02:57:05;11.57;;;8.93;;
59970;SDS011;45825;45.434;9.116;2023-04-24T02:59:31;11.82;;;8.70;;
59970;SDS011;45825;45.434;9.116;2023-04-24T03:01:56;11.13;;;8.68;;
59970;SDS011;45825;45.434;9.116;2023-04-24T03:04:22;11.93;;;8.40;;
59970;SDS011;45825;45.434;9.116;2023-04-24T03:06:47;12.57;;;8.43;;
59970;SDS011;45825;45.434;9.116;2023-04-24T03:09:13;12.07;;;8.10;;
59970;SDS011;45825;45.434;9.116;2023-04-24T03:11:38;12.65;;;8.30;;
59970;SDS011;45825;45.434;9.116;2023-04-24T03:14:03;10.73;;;8.25;;
59970;SDS011;45825;45.434;9.116;2023-04-24T03:16:29;11.93;;;8.02;;
59970;SDS011;45825;45.434;9.116;2023-04-24T03:18:54;11.73;;;8.10;;
59970;SDS011;45825;45.434;9.116;2023-04-24T03:21:20;12.48;;;8.70;;
59970;SDS011;45825;45.434;9.116;2023-04-24T03:23:45;11.85;;;8.45;;
59970;SDS011;45825;45.434;9.116;2023-04-24T03:26:11;13.48;;;8.75;;
59970;SDS011;45825;45.434;9.116;2023-04-24T03:28:36;10.80;;;8.73;;
59970;SDS011;45825;45.434;9.116;2023-04-24T03:31:02;12.05;;;8.63;;
59970;SDS011;45825;45.434;9.116;2023-04-24T03:33:28;12.55;;;8.98;;
59970;SDS011;45825;45.434;9.116;2023-04-24T03:35:54;12.80;;;9.07;;
59970;SDS011;45825;45.434;9.116;2023-04-24T03:38:19;12.25;;;9.43;;
59970;SDS011;45825;45.434;9.116;2023-04-24T03:40:44;11.60;;;9.00;;
59970;SDS011;45825;45.434;9.116;2023-04-24T03:43:10;11.73;;;8.77;;
59970;SDS011;45825;45.434;9.116;2023-04-24T03:45:35;11.13;;;8.93;;
59970;SDS011;45825;45.434;9.116;2023-04-24T03:48:00;12.35;;;9.02;;
59970;SDS011;45825;45.434;9.116;2023-04-24T03:50:26;12.85;;;9.27;;
59970;SDS011;45825;45.434;9.116;2023-04-24T03:52:51;11.45;;;8.90;;
59970;SDS011;45825;45.434;9.116;2023-04-24T03:55:17;11.25;;;8.43;;
59970;SDS011;45825;45.434;9.116;2023-04-24T03:57:42;14.13;;;8.50;;
59970;SDS011;45825;45.434;9.116;2023-04-24T04:00:07;10.40;;;8.50;;
59970;SDS011;45825;45.434;9.116;2023-04-24T04:02:34;10.82;;;8.15;;
59970;SDS011;45825;45.434;9.116;2023-04-24T04:04:59;11.52;;;8.60;;
59970;SDS011;45825;45.434;9.116;2023-04-24T04:07:24;11.38;;;8.45;;
59970;SDS011;45825;45.434;9.116;2023-04-24T04:09:50;13.73;;;9.18;;
59970;SDS011;45825;45.434;9.116;2023-04-24T04:12:15;11.00;;;8.10;;
59970;SDS011;45825;45.434;9.116;2023-04-24T04:14:41;11.48;;;8.07;;
59970;SDS011;45825;45.434;9.116;2023-04-24T04:17:06;11.02;;;7.95;;
59970;SDS011;45825;45.434;9.116;2023-04-24T04:19:31;12.23;;;7.95;;
59970;SDS011;45825;45.434;9.116;2023-04-24T04:21:57;11.48;;;7.97;;
59970;SDS011;45825;45.434;9.116;2023-04-24T04:24:22;13.10;;;9.20;;
59970;SDS011;45825;45.434;9.116;2023-04-24T04:26:49;11.20;;;8.80;;
59970;SDS011;45825;45.434;9.116;2023-04-24T04:29:15;11.18;;;8.68;;
59970;SDS011;45825;45.434;9.116;2023-04-24T04:31:41;10.73;;;8.25;;
59970;SDS011;45825;45.434;9.116;2023-04-24T04:34:06;11.52;;;7.25;;
59970;SDS011;45825;45.434;9.116;2023-04-24T04:36:32;10.95;;;7.18;;
59970;SDS011;45825;45.434;9.116;2023-04-24T04:39:01;11.88;;;8.00;;
59970;SDS011;45825;45.434;9.116;2023-04-24T04:41:27;10.98;;;7.40;;
59970;SDS011;45825;45.434;9.116;2023-04-24T04:43:53;10.88;;;7.47;;
59970;SDS011;45825;45.434;9.116;2023-04-24T04:46:18;9.73;;;7.22;;
59970;SDS011;45825;45.434;9.116;2023-04-24T04:48:43;9.73;;;7.20;;
59970;SDS011;45825;45.434;9.116;2023-04-24T04:51:09;11.13;;;8.07;;
59970;SDS011;45825;45.434;9.116;2023-04-24T04:53:34;12.63;;;7.45;;
59970;SDS011;45825;45.434;9.116;2023-04-24T04:56:00;11.23;;;7.75;;
59970;SDS011;45825;45.434;9.116;2023-04-24T04:58:25;11.57;;;7.70;;
59970;SDS011;45825;45.434;9.116;2023-04-24T05:00:51;10.38;;;7.40;;
59970;SDS011;45825;45.434;9.116;2023-04-24T05:03:17;10.45;;;7.55;;
59970;SDS011;45825;45.434;9.116;2023-04-24T05:05:42;10.10;;;7.20;;
59970;SDS011;45825;45.434;9.116;2023-04-24T05:08:08;10.60;;;7.20;;
59970;SDS011;45825;45.434;9.116;2023-04-24T05:10:33;11.35;;;8.10;;
59970;SDS011;45825;45.434;9.116;2023-04-24T05:12:59;9.15;;;6.43;;
59970;SDS011;45825;45.434;9.116;2023-04-24T05:15:24;10.25;;;6.50;;
59970;SDS011;45825;45.434;9.116;2023-04-24T05:17:49;9.65;;;6.78;;
59970;SDS011;45825;45.434;9.116;2023-04-24T05:20:15;11.05;;;6.47;;
59970;SDS011;45825;45.434;9.116;2023-04-24T05:22:40;10.05;;;6.55;;
59970;SDS011;45825;45.434;9.116;2023-04-24T05:25:06;9.07;;;6.05;;
59970;SDS011;45825;45.434;9.116;2023-04-24T05:27:31;10.13;;;6.47;;
59970;SDS011;45825;45.434;9.116;2023-04-24T05:29:57;9.63;;;6.30;;
59970;SDS011;45825;45.434;9.116;2023-04-24T05:32:22;8.85;;;6.13;;
59970;SDS011;45825;45.434;9.116;2023-04-24T05:34:47;9.18;;;6.25;;
59970;SDS011;45825;45.434;9.116;2023-04-24T05:37:12;9.65;;;6.00;;
59970;SDS011;45825;45.434;9.116;2023-04-24T05:39:38;9.65;;;5.82;;
59970;SDS011;45825;45.434;9.116;2023-04-24T05:42:03;7.93;;;6.00;;
59970;SDS011;45825;45.434;9.116;2023-04-24T05:44:29;7.88;;;5.82;;
59970;SDS011;45825;45.434;9.116;2023-04-24T05:46:55;7.85;;;5.20;;
59970;SDS011;45825;45.434;9.116;2023-04-24T05:49:20;8.43;;;5.28;;
59970;SDS011;45825;45.434;9.116;2023-04-24T05:51:46;7.68;;;5.10;;
59970;SDS011;45825;45.434;9.116;2023-04-24T05:54:11;7.70;;;5.55;;
59970;SDS011;45825;45.434;9.116;2023-04-24T05:56:37;8.25;;;5.00;;
59970;SDS011;45825;45.434;9.116;2023-04-24T05:59:02;6.78;;;4.88;;
59970;SDS011;45825;45.434;9.116;2023-04-24T06:01:28;8.93;;;5.43;;
59970;SDS011;45825;45.434;9.116;2023-04-24T06:03:54;10.50;;;5.40;;
59970;SDS011;45825;45.434;9.116;2023-04-24T06:06:20;8.27;;;5.70;;
59970;SDS011;45825;45.434;9.116;2023-04-24T06:08:45;7.63;;;5.47;;
59970;SDS011;45825;45.434;9.116;2023-04-24T06:11:11;7.80;;;5.30;;
59970;SDS011;45825;45.434;9.116;2023-04-24T06:13:36;7.35;;;4.82;;
59970;SDS011;45825;45.434;9.116;2023-04-24T06:16:01;7.72;;;5.45;;
59970;SDS011;45825;45.434;9.116;2023-04-24T06:18:27;7.85;;;5.63;;
59970;SDS011;45825;45.434;9.116;2023-04-24T06:20:52;7.40;;;5.28;;
59970;SDS011;45825;45.434;9.116;2023-04-24T06:23:17;8.30;;;5.50;;
59970;SDS011;45825;45.434;9.116;2023-04-24T06:25:42;8.75;;;5.20;;
59970;SDS011;45825;45.434;9.116;2023-04-24T06:28:08;9.95;;;5.70;;
59970;SDS011;45825;45.434;9.116;2023-04-24T06:30:34;7.72;;;5.50;;
59970;SDS011;45825;45.434;9.116;2023-04-24T06:32:59;10.77;;;5.47;;
59970;SDS011;45825;45.434;9.116;2023-04-24T06:35:25;8.88;;;5.97;;
59970;SDS011;45825;45.434;9.116;2023-04-24T06:37:51;8.52;;;5.80;;
59970;SDS011;45825;45.434;9.116;2023-04-24T06:40:16;9.23;;;6.07;;
59970;SDS011;45825;45.434;9.116;2023-04-24T06:42:43;9.30;;;5.40;;
59970;SDS011;45825;45.434;9.116;2023-04-24T06:45:09;10.32;;;5.70;;
59970;SDS011;45825;45.434;9.116;2023-04-24T06:47:34;9.02;;;5.75;;
59970;SDS011;45825;45.434;9.116;2023-04-24T06:50:00;7.85;;;5.47;;
59970;SDS011;45825;45.434;9.116;2023-04-24T06:52:25;8.32;;;5.28;;
59970;SDS011;45825;45.434;9.116;2023-04-24T06:54:50;10.45;;;5.80;;
59970;SDS011;45825;45.434;9.116;2023-04-24T06:57:16;8.35;;;5.32;;
59970;SDS011;45825;45.434;9.116;2023-04-24T06:59:41;9.80;;;5.20;;
59970;SDS011;45825;45.434;9.116;2023-04-24T07:02:07;10.02;;;5.60;;
59970;SDS011;45825;45.434;9.116;2023-04-24T07:04:32;12.45;;;5.32;;
59970;SDS011;45825;45.434;9.116;2023-04-24T07:06:58;9.60;;;5.38;;
59970;SDS011;45825;45.434;9.116;2023-04-24T07:09:23;10.60;;;5.50;;
59970;SDS011;45825;45.434;9.116;2023-04-24T07:11:53;8.68;;;5.85;;
59970;SDS011;45825;45.434;9.116;2023-04-24T07:14:19;10.45;;;6.07;;
59970;SDS011;45825;45.434;9.116;2023-04-24T07:16:45;8.25;;;5.53;;
59970;SDS011;45825;45.434;9.116;2023-04-24T07:19:11;8.30;;;5.40;;
59970;SDS011;45825;45.434;9.116;2023-04-24T07:21:37;9.50;;;5.40;;
59970;SDS011;45825;45.434;9.116;2023-04-24T07:24:02;9.32;;;5.65;;
59970;SDS011;45825;45.434;9.116;2023-04-24T07:26:29;11.10;;;5.90;;
59970;SDS011;45825;45.434;9.116;2023-04-24T07:28:55;10.15;;;5.45;;
59970;SDS011;45825;45.434;9.116;2023-04-24T07:31:21;9.57;;;5.07;;
59970;SDS011;45825;45.434;9.116;2023-04-24T07:33:46;8.73;;;4.85;;
59970;SDS011;45825;45.434;9.116;2023-04-24T07:36:12;7.72;;;4.60;;
59970;SDS011;45825;45.434;9.116;2023-04-24T07:38:44;8.43;;;4.85;;
59970;SDS011;45825;45.434;9.116;2023-04-24T07:41:10;8.75;;;4.72;;
59970;SDS011;45825;45.434;9.116;2023-04-24T07:43:35;6.90;;;4.18;;
59970;SDS011;45825;45.434;9.116;2023-04-24T07:46:01;8.85;;;5.22;;
59970;SDS011;45825;45.434;9.116;2023-04-24T07:48:26;9.07;;;4.63;;
59970;SDS011;45825;45.434;9.116;2023-04-24T07:50:52;7.90;;;4.43;;
59970;SDS011;45825;45.434;9.116;2023-04-24T07:53:18;8.45;;;4.75;;
59970;SDS011;45825;45.434;9.116;2023-04-24T07:55:43;7.88;;;4.38;;
59970;SDS011;45825;45.434;9.116;2023-04-24T07:58:08;7.13;;;3.85;;
59970;SDS011;45825;45.434;9.116;2023-04-24T08:00:34;8.57;;;4.03;;
59970;SDS011;45825;45.434;9.116;2023-04-24T08:02:59;9.63;;;4.00;;
59970;SDS011;45825;45.434;9.116;2023-04-24T08:05:25;5.85;;;3.65;;
59970;SDS011;45825;45.434;9.116;2023-04-24T08:07:52;6.43;;;3.17;;
59970;SDS011;45825;45.434;9.116;2023-04-24T08:10:24;6.07;;;3.30;;
59970;SDS011;45825;45.434;9.116;2023-04-24T08:12:50;7.40;;;3.80;;
59970;SDS011;45825;45.434;9.116;2023-04-24T08:15:15;7.78;;;3.50;;
59970;SDS011;45825;45.434;9.116;2023-04-24T08:17:41;6.57;;;3.40;;
59970;SDS011;45825;45.434;9.116;2023-04-24T08:20:06;6.22;;;3.75;;
59970;SDS011;45825;45.434;9.116;2023-04-24T08:22:38;7.35;;;3.63;;
59970;SDS011;45825;45.434;9.116;2023-04-24T08:25:03;5.03;;;2.50;;
59970;SDS011;45825;45.434;9.116;2023-04-24T08:27:29;4.70;;;2.50;;
59970;SDS011;45825;45.434;9.116;2023-04-24T08:29:54;5.95;;;2.88;;
59970;SDS011;45825;45.434;9.116;2023-04-24T08:32:19;5.10;;;2.75;;
59970;SDS011;45825;45.434;9.116;2023-04-24T08:34:45;6.82;;;2.53;;
59970;SDS011;45825;45.434;9.116;2023-04-24T08:37:10;5.82;;;2.80;;
59970;SDS011;45825;45.434;9.116;2023-04-24T08:39:36;5.18;;;2.38;;
59970;SDS011;45825;45.434;9.116;2023-04-24T08:42:01;6.60;;;2.50;;
59970;SDS011;45825;45.434;9.116;2023-04-24T08:44:31;5.97;;;2.60;;
59970;SDS011;45825;45.434;9.116;2023-04-24T08:46:57;4.20;;;2.13;;
59970;SDS011;45825;45.434;9.116;2023-04-24T08:49:23;4.75;;;2.42;;
59970;SDS011;45825;45.434;9.116;2023-04-24T08:51:49;5.47;;;2.50;;
59970;SDS011;45825;45.434;9.116;2023-04-24T08:54:15;5.25;;;2.45;;
59970;SDS011;45825;45.434;9.116;2023-04-24T08:56:43;6.80;;;2.95;;
59970;SDS011;45825;45.434;9.116;2023-04-24T08:59:09;8.00;;;3.65;;
59970;SDS011;45825;45.434;9.116;2023-04-24T09:01:35;20.63;;;15.68;;
59970;SDS011;45825;45.434;9.116;2023-04-24T09:04:02;49.45;;;44.35;;
59970;SDS011;45825;45.434;9.116;2023-04-24T09:06:28;7.47;;;4.55;;
59970;SDS011;45825;45.434;9.116;2023-04-24T09:08:57;6.07;;;2.90;;
59970;SDS011;45825;45.434;9.116;2023-04-24T09:11:26;5.25;;;2.47;;
59970;SDS011;45825;45.434;9.116;2023-04-24T09:13:51;4.00;;;2.08;;
59970;SDS011;45825;45.434;9.116;2023-04-24T09:16:18;5.18;;;2.00;;
59970;SDS011;45825;45.434;9.116;2023-04-24T09:18:44;5.70;;;2.50;;
59970;SDS011;45825;45.434;9.116;2023-04-24T09:21:10;4.90;;;2.97;;
59970;SDS011;45825;45.434;9.116;2023-04-24T09:23:35;6.75;;;3.53;;
59970;SDS011;45825;45.434;9.116;2023-04-24T09:26:02;7.05;;;3.20;;
59970;SDS011;45825;45.434;9.116;2023-04-24T09:28:31;7.57;;;3.55;;
59970;SDS011;45825;45.434;9.116;2023-04-24T09:31:03;9.38;;;6.28;;
59970;SDS011;45825;45.434;9.116;2023-04-24T09:33:28;4.97;;;2.85;;
59970;SDS011;45825;45.434;9.116;2023-04-24T09:35:54;4.90;;;2.70;;
59970;SDS011;45825;45.434;9.116;2023-04-24T09:38:19;5.90;;;2.35;;
59970;SDS011;45825;45.434;9.116;2023-04-24T09:40:57;3.35;;;1.85;;
59970;SDS011;45825;45.434;9.116;2023-04-24T09:43:25;3.17;;;1.73;;
59970;SDS011;45825;45.434;9.116;2023-04-24T09:45:52;4.80;;;2.35;;
59970;SDS011;45825;45.434;9.116;2023-04-24T09:48:29;5.78;;;2.20;;
59970;SDS011;45825;45.434;9.116;2023-04-24T09:50:55;4.60;;;2.03;;
59970;SDS011;45825;45.434;9.116;2023-04-24T09:53:24;3.97;;;1.88;;
59970;SDS011;45825;45.434;9.116;2023-04-24T09:55:51;3.53;;;1.98;;
59970;SDS011;45825;45.434;9.116;2023-04-24T09:58:18;3.08;;;1.88;;
59970;SDS011;45825;45.434;9.116;2023-04-24T10:00:43;2.72;;;1.33;;
59970;SDS011;45825;45.434;9.116;2023-04-24T10:03:10;1.90;;;1.20;;
59970;SDS011;45825;45.434;9.116;2023-04-24T10:05:36;1.77;;;1.20;;
59970;SDS011;45825;45.434;9.116;2023-04-24T10:08:13;1.70;;;1.10;;
59970;SDS011;45825;45.434;9.116;2023-04-24T10:10:39;1.10;;;0.90;;
59970;SDS011;45825;45.434;9.116;2023-04-24T10:13:09;2.05;;;1.10;;
59970;SDS011;45825;45.434;9.116;2023-04-24T10:15:35;1.90;;;0.90;;
59970;SDS011;45825;45.434;9.116;2023-04-24T10:18:01;2.15;;;0.90;;
59970;SDS011;45825;45.434;9.116;2023-04-24T10:20:29;1.33;;;0.73;;
59970;SDS011;45825;45.434;9.116;2023-04-24T10:22:56;2.22;;;0.90;;
59970;SDS011;45825;45.434;9.116;2023-04-24T10:25:23;1.83;;;0.90;;
59970;SDS011;45825;45.434;9.116;2023-04-24T10:27:51;1.80;;;1.00;;
59970;SDS011;45825;45.434;9.116;2023-04-24T10:30:18;3.25;;;1.20;;
59970;SDS011;45825;45.434;9.116;2023-04-24T10:32:44;1.70;;;1.10;;
59970;SDS011;45825;45.434;9.116;2023-04-24T10:35:11;2.20;;;1.30;;
59970;SDS011;45825;45.434;9.116;2023-04-24T10:37:39;1.85;;;1.10;;
59970;SDS011;45825;45.434;9.116;2023-04-24T10:40:07;2.58;;;1.20;;
59970;SDS011;45825;45.434;9.116;2023-04-24T10:42:33;2.80;;;1.42;;
59970;SDS011;45825;45.434;9.116;2023-04-24T10:45:04;2.88;;;1.60;;
59970;SDS011;45825;45.434;9.116;2023-04-24T10:47:38;2.83;;;1.88;;
59970;SDS011;45825;45.434;9.116;2023-04-24T10:50:07;3.28;;;1.35;;
59970;SDS011;45825;45.434;9.116;2023-04-24T10:52:44;1.98;;;1.10;;
59970;SDS011;45825;45.434;9.116;2023-04-24T10:55:10;3.33;;;1.38;;
59970;SDS011;45825;45.434;9.116;2023-04-24T10:57:38;2.72;;;1.50;;
59970;SDS011;45825;45.434;9.116;2023-04-24T11:02:37;1.90;;;0.95;;
59970;SDS011;45825;45.434;9.116;2023-04-24T11:05:05;1.23;;;0.90;;
59970;SDS011;45825;45.434;9.116;2023-04-24T11:08:09;3.05;;;1.20;;
59970;SDS011;45825;45.434;9.116;2023-04-24T11:10:39;2.80;;;1.20;;
59970;SDS011;45825;45.434;9.116;2023-04-24T11:13:25;2.13;;;1.27;;
59970;SDS011;45825;45.434;9.116;2023-04-24T11:16:11;1.85;;;1.10;;
59970;SDS011;45825;45.434;9.116;2023-04-24T11:18:38;1.98;;;1.00;;
59970;SDS011;45825;45.434;9.116;2023-04-24T11:21:11;1.23;;;0.80;;
59970;SDS011;45825;45.434;9.116;2023-04-24T11:23:37;1.60;;;0.90;;
59970;SDS011;45825;45.434;9.116;2023-04-24T11:26:11;1.38;;;0.98;;
59970;SDS011;45825;45.434;9.116;2023-04-24T11:28:43;1.35;;;0.98;;
59970;SDS011;45825;45.434;9.116;2023-04-24T11:34:10;3.55;;;0.98;;
59970;SDS011;45825;45.434;9.116;2023-04-24T11:36:38;4.05;;;1.30;;
59970;SDS011;45825;45.434;9.116;2023-04-24T11:39:04;3.08;;;1.30;;
59970;SDS011;45825;45.434;9.116;2023-04-24T11:41:29;2.42;;;1.00;;
59970;SDS011;45825;45.434;9.116;2023-04-24T11:43:55;3.15;;;1.00;;
59970;SDS011;45825;45.434;9.116;2023-04-24T11:46:21;1.83;;;1.10;;
59970;SDS011;45825;45.434;9.116;2023-04-24T11:48:47;1.70;;;0.82;;
59970;SDS011;45825;45.434;9.116;2023-04-24T11:51:12;1.98;;;0.90;;
59970;SDS011;45825;45.434;9.116;2023-04-24T11:53:38;1.42;;;0.90;;
59970;SDS011;45825;45.434;9.116;2023-04-24T11:56:04;1.55;;;0.80;;
59970;SDS011;45825;45.434;9.116;2023-04-24T11:58:34;2.30;;;1.08;;
59970;SDS011;45825;45.434;9.116;2023-04-24T12:01:05;1.33;;;0.80;;
59970;SDS011;45825;45.434;9.116;2023-04-24T12:03:31;2.22;;;1.00;;
59970;SDS011;45825;45.434;9.116;2023-04-24T12:06:09;2.53;;;1.08;;
59970;SDS011;45825;45.434;9.116;2023-04-24T12:08:36;2.67;;;0.95;;
59970;SDS011;45825;45.434;9.116;2023-04-24T12:11:02;3.08;;;0.90;;
59970;SDS011;45825;45.434;9.116;2023-04-24T12:13:29;2.90;;;1.00;;
59970;SDS011;45825;45.434;9.116;2023-04-24T12:15:54;1.60;;;0.80;;
59970;SDS011;45825;45.434;9.116;2023-04-24T12:18:23;2.20;;;1.00;;
59970;SDS011;45825;45.434;9.116;2023-04-24T12:20:49;2.72;;;1.10;;
59970;SDS011;45825;45.434;9.116;2023-04-24T12:23:15;3.80;;;0.98;;
59970;SDS011;45825;45.434;9.116;2023-04-24T12:25:40;2.45;;;1.10;;
59970;SDS011;45825;45.434;9.116;2023-04-24T12:30:34;2.97;;;1.00;;
59970;SDS011;45825;45.434;9.116;2023-04-24T12:33:03;3.65;;;0.98;;
59970;SDS011;45825;45.434;9.116;2023-04-24T12:35:29;3.30;;;0.85;;
59970;SDS011;45825;45.434;9.116;2023-04-24T12:38:05;1.45;;;0.85;;
59970;SDS011;45825;45.434;9.116;2023-04-24T12:40:31;2.30;;;1.20;;
59970;SDS011;45825;45.434;9.116;2023-04-24T12:42:56;3.88;;;1.27;;
59970;SDS011;45825;45.434;9.116;2023-04-24T12:45:22;3.13;;;1.30;;
59970;SDS011;45825;45.434;9.116;2023-04-24T12:47:49;3.25;;;0.82;;
59970;SDS011;45825;45.434;9.116;2023-04-24T12:50:15;2.13;;;0.82;;
59970;SDS011;45825;45.434;9.116;2023-04-24T12:52:41;3.05;;;0.75;;
59970;SDS011;45825;45.434;9.116;2023-04-24T12:55:07;1.08;;;0.60;;
59970;SDS011;45825;45.434;9.116;2023-04-24T12:57:33;2.13;;;0.60;;
59970;SDS011;45825;45.434;9.116;2023-04-24T12:59:59;1.67;;;0.50;;
59970;SDS011;45825;45.434;9.116;2023-04-24T13:02:25;0.50;;;0.50;;
59970;SDS011;45825;45.434;9.116;2023-04-24T13:04:53;1.55;;;0.55;;
59970;SDS011;45825;45.434;9.116;2023-04-24T13:07:19;1.50;;;0.60;;
59970;SDS011;45825;45.434;9.116;2023-04-24T13:09:45;1.80;;;0.40;;
59970;SDS011;45825;45.434;9.116;2023-04-24T13:12:13;2.22;;;0.75;;
59970;SDS011;45825;45.434;9.116;2023-04-24T13:14:39;1.55;;;0.50;;
59970;SDS011;45825;45.434;9.116;2023-04-24T13:17:04;0.90;;;0.50;;
59970;SDS011;45825;45.434;9.116;2023-04-24T13:19:34;2.00;;;0.93;;
59970;SDS011;45825;45.434;9.116;2023-04-24T13:22:01;2.17;;;0.63;;
59970;SDS011;45825;45.434;9.116;2023-04-24T13:24:26;0.93;;;0.60;;
59970;SDS011;45825;45.434;9.116;2023-04-24T13:26:52;0.90;;;0.50;;
59970;SDS011;45825;45.434;9.116;2023-04-24T13:29:17;0.77;;;0.60;;
59970;SDS011;45825;45.434;9.116;2023-04-24T13:31:42;1.05;;;0.50;;
59970;SDS011;45825;45.434;9.116;2023-04-24T13:34:08;0.30;;;0.30;;
59970;SDS011;45825;45.434;9.116;2023-04-24T13:36:33;0.43;;;0.40;;
59970;SDS011;45825;45.434;9.116;2023-04-24T13:38:58;1.65;;;0.40;;
59970;SDS011;45825;45.434;9.116;2023-04-24T13:41:24;0.52;;;0.40;;
59970;SDS011;45825;45.434;9.116;2023-04-24T13:43:49;0.30;;;0.30;;
59970;SDS011;45825;45.434;9.116;2023-04-24T13:46:15;0.50;;;0.50;;
59970;SDS011;45825;45.434;9.116;2023-04-24T13:48:41;1.55;;;0.40;;
59970;SDS011;45825;45.434;9.116;2023-04-24T13:51:06;1.50;;;0.60;;
59970;SDS011;45825;45.434;9.116;2023-04-24T13:53:31;0.77;;;0.43;;
59970;SDS011;45825;45.434;9.116;2023-04-24T13:55:57;0.38;;;0.30;;
59970;SDS011;45825;45.434;9.116;2023-04-24T13:58:23;1.10;;;0.30;;
59970;SDS011;45825;45.434;9.116;2023-04-24T14:00:48;0.40;;;0.40;;
59970;SDS011;45825;45.434;9.116;2023-04-24T14:03:13;0.43;;;0.40;;
59970;SDS011;45825;45.434;9.116;2023-04-24T14:05:40;0.40;;;0.20;;
59970;SDS011;45825;45.434;9.116;2023-04-24T14:08:05;0.30;;;0.30;;
59970;SDS011;45825;45.434;9.116;2023-04-24T14:10:31;0.90;;;0.30;;
59970;SDS011;45825;45.434;9.116;2023-04-24T14:12:56;0.40;;;0.30;;
59970;SDS011;45825;45.434;9.116;2023-04-24T14:15:22;0.77;;;0.32;;
59970;SDS011;45825;45.434;9.116;2023-04-24T14:17:47;0.45;;;0.30;;
59970;SDS011;45825;45.434;9.116;2023-04-24T14:20:13;1.17;;;0.30;;
59970;SDS011;45825;45.434;9.116;2023-04-24T14:22:39;0.90;;;0.40;;
59970;SDS011;45825;45.434;9.116;2023-04-24T14:25:04;0.57;;;0.22;;
59970;SDS011;45825;45.434;9.116;2023-04-24T14:27:31;0.40;;;0.40;;
59970;SDS011;45825;45.434;9.116;2023-04-24T14:29:57;0.30;;;0.22;;
59970;SDS011;45825;45.434;9.116;2023-04-24T14:32:22;0.40;;;0.40;;
59970;SDS011;45825;45.434;9.116;2023-04-24T14:34:47;1.08;;;0.30;;
59970;SDS011;45825;45.434;9.116;2023-04-24T14:37:13;0.50;;;0.30;;
59970;SDS011;45825;45.434;9.116;2023-04-24T14:39:38;0.65;;;0.30;;
59970;SDS011;45825;45.434;9.116;2023-04-24T14:42:03;1.10;;;0.20;;
59970;SDS011;45825;45.434;9.116;2023-04-24T14:44:28;0.95;;;0.30;;
59970;SDS011;45825;45.434;9.116;2023-04-24T14:46:54;0.15;;;0.15;;